Time;durP1;ratioP1;P1;durP2;ratioP2;P2;SDS_P1;SDS_P2;PMS_P1;PMS_P2;Temp;Humidity;BMP_temperature;BMP_pressure;BME280_temperature;BME280_humidity;BME280_pressure;Samples;Min_cycle;Max_cycle;Signal;HPM_P1;HPM_P2
2024/02/04 00:01:41;;;;;;;176.68;166.60;;;11.40;99.90;;;;;;5029515;28;20037;-72
2024/02/04 00:04:07;;;;;;;163.20;153.93;;;11.30;99.90;;;;;;5031840;28;20037;-72
2024/02/04 00:06:33;;;;;;;172.43;162.52;;;11.20;99.90;;;;;;5031854;28;20036;-72
2024/02/04 00:08:59;;;;;;;170.57;160.52;;;11.20;99.90;;;;;;5030738;28;20034;-72
2024/02/04 00:11:25;;;;;;;197.48;185.73;;;11.20;99.90;;;;;;5030165;28;20060;-71
2024/02/04 00:13:52;;;;;;;191.93;180.70;;;11.20;99.90;;;;;;5031667;28;20085;-73
2024/02/04 00:16:18;;;;;;;182.90;172.07;;;11.20;99.90;;;;;;5029893;28;20052;-72
2024/02/04 00:18:44;;;;;;;176.15;165.77;;;11.10;99.90;;;;;;5030786;28;20037;-72
2024/02/04 00:21:10;;;;;;;164.95;155.07;;;11.10;99.90;;;;;;5029704;28;20497;-72
2024/02/04 00:23:36;;;;;;;235.65;222.07;;;11.20;99.90;;;;;;5032083;28;20033;-72
2024/02/04 00:26:02;;;;;;;199.82;188.57;;;11.20;99.90;;;;;;5031214;28;20504;-72
2024/02/04 00:28:28;;;;;;;196.63;185.52;;;11.10;99.90;;;;;;5031297;28;20375;-72
2024/02/04 00:30:55;;;;;;;167.57;157.55;;;11.00;99.90;;;;;;5030908;28;20064;-72
2024/02/04 00:33:22;;;;;;;176.60;166.07;;;10.90;99.90;;;;;;5031831;28;20041;-72
2024/02/04 00:35:48;;;;;;;168.32;158.27;;;11.00;99.90;;;;;;5030453;28;20485;-72
2024/02/04 00:38:14;;;;;;;170.57;160.68;;;11.00;99.90;;;;;;5030276;28;20412;-72
2024/02/04 00:40:40;;;;;;;169.40;159.63;;;11.10;99.90;;;;;;5031643;28;20052;-72
2024/02/04 00:43:06;;;;;;;167.95;158.52;;;11.10;99.90;;;;;;5014012;28;20386;-72
2024/02/04 00:45:32;;;;;;;173.63;163.57;;;11.20;99.90;;;;;;5030188;28;20041;-72
2024/02/04 00:47:58;;;;;;;162.93;153.65;;;11.20;99.90;;;;;;5031579;28;20068;-72
2024/02/04 00:50:24;;;;;;;159.35;150.27;;;11.20;99.90;;;;;;5031654;28;20033;-73
2024/02/04 00:52:53;;;;;;;151.98;143.35;;;11.20;99.90;;;;;;5031889;28;20052;-72
2024/02/04 00:55:20;;;;;;;165.20;156.13;;;11.00;99.90;;;;;;5031140;28;20045;-72
2024/02/04 00:57:46;;;;;;;145.07;136.75;;;10.70;99.90;;;;;;5031832;28;20034;-72
2024/02/04 01:00:15;;;;;;;157.60;148.90;;;10.80;99.90;;;;;;5029255;28;20435;-73
2024/02/04 01:02:41;;;;;;;172.23;162.98;;;11.00;99.90;;;;;;5032005;28;20482;-72
2024/02/04 01:05:07;;;;;;;176.73;166.38;;;11.00;99.90;;;;;;5031279;28;20049;-72
2024/02/04 01:07:33;;;;;;;179.20;168.93;;;11.00;99.90;;;;;;5031967;28;20045;-72
2024/02/04 01:09:59;;;;;;;175.23;165.50;;;10.90;99.90;;;;;;5031123;28;20049;-72
2024/02/04 01:12:26;;;;;;;187.68;177.38;;;10.90;99.90;;;;;;5031087;28;20069;-72
2024/02/04 01:14:52;;;;;;;163.18;153.93;;;10.90;99.90;;;;;;5030925;28;20080;-72
2024/02/04 01:17:18;;;;;;;163.45;154.00;;;11.00;99.90;;;;;;5029876;28;20033;-72
2024/02/04 01:19:44;;;;;;;165.48;156.30;;;10.80;99.90;;;;;;5031499;28;20045;-72
2024/02/04 01:22:10;;;;;;;172.30;162.65;;;10.90;99.90;;;;;;5031086;28;20037;-72
2024/02/04 01:24:36;;;;;;;164.65;155.55;;;11.00;99.90;;;;;;5031319;28;20409;-72
2024/02/04 01:27:02;;;;;;;162.70;153.75;;;11.00;99.90;;;;;;5033443;28;20037;-72
2024/02/04 01:29:28;;;;;;;164.55;155.55;;;11.10;99.90;;;;;;5034072;28;20036;-72
2024/02/04 01:31:54;;;;;;;178.80;168.95;;;11.10;99.90;;;;;;5033974;28;20037;-73
2024/02/04 01:34:20;;;;;;;182.75;172.55;;;11.20;99.90;;;;;;5034788;28;20040;-72
2024/02/04 01:36:47;;;;;;;158.15;149.32;;;11.20;99.90;;;;;;5034207;28;20037;-72
2024/02/04 01:39:13;;;;;;;169.18;159.68;;;11.20;99.90;;;;;;5034352;28;20398;-73
2024/02/04 01:41:39;;;;;;;162.30;153.00;;;11.20;99.90;;;;;;5034005;28;20053;-72
2024/02/04 01:44:06;;;;;;;151.65;143.43;;;11.20;99.90;;;;;;5034297;28;20051;-72
2024/02/04 01:46:32;;;;;;;136.45;128.73;;;11.20;99.90;;;;;;5032117;28;20494;-72
2024/02/04 01:48:59;;;;;;;139.38;131.63;;;11.20;99.90;;;;;;5034587;28;20028;-72
2024/02/04 01:51:25;;;;;;;153.70;145.02;;;11.10;99.90;;;;;;5034401;28;20045;-72
2024/02/04 01:53:52;;;;;;;174.73;165.35;;;11.20;99.90;;;;;;5032885;28;20041;-72
2024/02/04 01:56:18;;;;;;;176.57;166.63;;;11.20;99.90;;;;;;5033464;28;20029;-72
2024/02/04 01:58:44;;;;;;;173.98;164.38;;;11.20;99.90;;;;;;5032577;28;20469;-72
2024/02/04 02:01:11;;;;;;;168.50;159.00;;;11.20;99.90;;;;;;5016102;28;20030;-72
2024/02/04 02:03:37;;;;;;;172.30;163.13;;;11.20;99.90;;;;;;5033697;28;20053;-72
2024/02/04 02:06:04;;;;;;;169.52;160.23;;;11.20;99.90;;;;;;5031490;28;20049;-72
2024/02/04 02:08:30;;;;;;;146.32;138.18;;;11.20;99.90;;;;;;5032913;28;20052;-72
2024/02/04 02:11:02;;;;;;;165.07;155.63;;;11.20;99.90;;;;;;5016258;28;20440;-72
2024/02/04 02:13:29;;;;;;;144.18;136.10;;;11.20;99.90;;;;;;5033115;28;20049;-72
2024/02/04 02:15:58;;;;;;;144.50;136.63;;;11.20;99.90;;;;;;5032360;28;20033;-72
2024/02/04 02:18:31;;;;;;;143.43;135.40;;;11.20;99.90;;;;;;5015036;28;20042;-72
2024/02/04 02:21:03;;;;;;;139.13;131.50;;;11.20;99.90;;;;;;5032476;28;20037;-72
2024/02/04 02:23:35;;;;;;;144.45;136.55;;;11.20;99.90;;;;;;5032158;28;20037;-72
2024/02/04 02:26:01;;;;;;;151.18;143.02;;;11.20;99.90;;;;;;5032467;28;20395;-72
2024/02/04 02:28:27;;;;;;;163.98;155.07;;;11.20;99.90;;;;;;5015116;28;20033;-72
2024/02/04 02:30:53;;;;;;;161.75;152.90;;;11.20;99.90;;;;;;5031235;28;20387;-72
2024/02/04 02:33:20;;;;;;;151.18;142.70;;;11.20;99.90;;;;;;5033578;28;20034;-72
2024/02/04 02:35:46;;;;;;;144.80;136.80;;;11.20;99.90;;;;;;5031883;28;20042;-72
2024/02/04 02:38:23;;;;;;;144.20;136.27;;;11.20;99.90;;;;;;5014983;28;20025;-72
2024/02/04 02:40:54;;;;;;;133.77;126.68;;;11.20;99.90;;;;;;5033290;28;20041;-72
2024/02/04 02:43:20;;;;;;;135.80;128.23;;;11.20;99.90;;;;;;5031875;28;20034;-73
2024/02/04 02:45:46;;;;;;;228.23;215.57;;;11.20;99.90;;;;;;5030683;28;20045;-72
2024/02/04 02:48:12;;;;;;;228.02;214.85;;;11.20;99.90;;;;;;5014132;28;20036;-72
2024/02/04 02:50:39;;;;;;;148.40;139.98;;;11.10;99.90;;;;;;5031603;28;20048;-72
2024/02/04 02:53:05;;;;;;;175.43;165.82;;;11.10;99.90;;;;;;5033827;28;20034;-72
2024/02/04 02:55:31;;;;;;;172.98;163.57;;;11.10;99.90;;;;;;5031566;28;20037;-72
2024/02/04 02:57:57;;;;;;;141.32;133.13;;;11.10;99.90;;;;;;5033504;28;20021;-72
2024/02/04 03:00:23;;;;;;;144.95;137.00;;;11.00;99.90;;;;;;5031554;28;20041;-72
2024/02/04 03:02:49;;;;;;;141.32;133.82;;;11.00;99.90;;;;;;5024178;28;20049;-73
2024/02/04 03:05:15;;;;;;;159.05;150.23;;;11.00;99.90;;;;;;5026680;28;20052;-72
2024/02/04 03:07:41;;;;;;;138.77;131.10;;;11.00;99.90;;;;;;5030926;28;20037;-72
2024/02/04 03:10:08;;;;;;;224.05;211.40;;;11.00;99.90;;;;;;5031399;28;20477;-72
2024/02/04 03:12:35;;;;;;;180.43;170.50;;;10.90;99.90;;;;;;5030672;28;20482;-72
2024/02/04 03:15:01;;;;;;;198.43;187.30;;;10.90;99.90;;;;;;5031859;28;20044;-72
2024/02/04 03:17:27;;;;;;;185.90;175.65;;;11.00;99.90;;;;;;5030927;28;20045;-72
2024/02/04 03:19:56;;;;;;;197.00;186.32;;;10.90;99.90;;;;;;5031615;28;20048;-72
2024/02/04 03:22:22;;;;;;;239.10;225.80;;;10.90;99.90;;;;;;5031605;28;20030;-72
2024/02/04 03:24:48;;;;;;;252.48;238.27;;;10.90;99.90;;;;;;5031482;28;20045;-72
2024/02/04 03:27:17;;;;;;;231.13;217.85;;;10.90;99.90;;;;;;5030071;28;20486;-72
2024/02/04 03:29:43;;;;;;;211.98;200.13;;;11.00;99.90;;;;;;5031668;28;20041;-72
2024/02/04 03:32:10;;;;;;;169.65;160.23;;;11.00;99.90;;;;;;5030626;28;20049;-72
2024/02/04 03:34:36;;;;;;;147.43;138.48;;;11.10;99.90;;;;;;5031111;28;20470;-72
2024/02/04 03:37:03;;;;;;;143.80;135.80;;;11.10;99.90;;;;;;5031381;28;20045;-72
2024/02/04 03:39:29;;;;;;;161.63;152.70;;;11.00;99.90;;;;;;5032127;28;20030;-73
2024/02/04 03:41:55;;;;;;;199.60;188.48;;;11.00;99.90;;;;;;5026995;28;20064;-72
2024/02/04 03:44:21;;;;;;;251.88;237.45;;;11.00;99.90;;;;;;5032637;28;20029;-73
2024/02/04 03:46:50;;;;;;;282.38;266.48;;;10.90;99.90;;;;;;5031675;28;20406;-72
2024/02/04 03:49:17;;;;;;;263.95;249.27;;;10.90;99.90;;;;;;5032378;28;20045;-73
2024/02/04 03:51:43;;;;;;;277.85;262.13;;;11.00;99.90;;;;;;5031945;28;20049;-72
2024/02/04 03:54:09;;;;;;;237.82;224.68;;;10.90;99.90;;;;;;5031875;28;20390;-72
2024/02/04 03:56:35;;;;;;;252.73;238.52;;;10.80;99.90;;;;;;5030953;28;20029;-73
2024/02/04 03:59:01;;;;;;;270.00;253.98;;;10.80;99.90;;;;;;5031986;28;20029;-73
2024/02/04 04:01:27;;;;;;;271.92;256.25;;;10.70;99.90;;;;;;5031582;28;20040;-72
2024/02/04 04:03:53;;;;;;;260.25;245.38;;;10.70;99.90;;;;;;5032420;28;20044;-72
2024/02/04 04:06:19;;;;;;;263.83;248.82;;;10.70;99.90;;;;;;5031523;28;20557;-73
2024/02/04 04:08:45;;;;;;;252.10;237.68;;;10.80;99.90;;;;;;5031961;28;20029;-72
2024/02/04 04:11:12;;;;;;;230.00;216.48;;;10.80;99.90;;;;;;5031012;28;20466;-73
2024/02/04 04:13:38;;;;;;;224.55;211.75;;;10.70;99.90;;;;;;5030951;28;20025;-72
2024/02/04 04:16:05;;;;;;;209.57;197.85;;;10.70;99.90;;;;;;5031497;28;20056;-73
2024/02/04 04:18:31;;;;;;;222.15;209.32;;;10.80;99.90;;;;;;5032038;28;20040;-72
2024/02/04 04:20:57;;;;;;;249.15;234.85;;;10.80;99.90;;;;;;5029905;28;20052;-72
2024/02/04 04:23:24;;;;;;;263.45;248.32;;;10.90;99.90;;;;;;5031774;28;20033;-72
2024/02/04 04:25:50;;;;;;;271.08;255.10;;;10.90;99.90;;;;;;5031639;28;20052;-72
2024/02/04 04:28:16;;;;;;;299.65;282.02;;;10.90;99.90;;;;;;5032105;28;20029;-72
2024/02/04 04:30:42;;;;;;;253.10;238.35;;;10.70;99.90;;;;;;5030929;28;20041;-72
2024/02/04 04:33:08;;;;;;;292.85;275.85;;;10.80;99.90;;;;;;5032131;28;20025;-72
2024/02/04 04:35:34;;;;;;;281.50;265.40;;;10.80;99.90;;;;;;5031231;28;20033;-73
2024/02/04 04:38:01;;;;;;;286.98;270.63;;;10.90;99.90;;;;;;5031200;28;20402;-72
2024/02/04 04:40:27;;;;;;;270.40;255.15;;;10.90;99.90;;;;;;5031122;28;20037;-72
2024/02/04 04:42:53;;;;;;;270.25;255.00;;;10.90;99.90;;;;;;5031362;28;20044;-72
2024/02/04 04:45:19;;;;;;;225.80;213.40;;;11.00;99.90;;;;;;5030968;28;20045;-73
2024/02/04 04:47:45;;;;;;;222.77;210.63;;;11.00;99.90;;;;;;5031840;28;20040;-73
2024/02/04 04:50:11;;;;;;;262.50;247.38;;;10.90;99.90;;;;;;5031557;28;20026;-73
2024/02/04 04:52:37;;;;;;;236.65;223.35;;;10.80;99.90;;;;;;5029599;28;20053;-72
2024/02/04 04:55:04;;;;;;;261.77;246.82;;;10.80;99.90;;;;;;5031442;28;20025;-72
2024/02/04 04:57:30;;;;;;;273.80;258.40;;;10.90;99.90;;;;;;5030894;28;20030;-72
2024/02/04 04:59:58;;;;;;;266.95;251.63;;;10.90;99.90;;;;;;5031169;28;20041;-73
2024/02/04 05:02:24;;;;;;;282.27;266.42;;;10.90;99.90;;;;;;5029805;28;20045;-72
2024/02/04 05:04:50;;;;;;;257.85;243.13;;;10.90;99.90;;;;;;5024395;28;20028;-72
2024/02/04 05:07:16;;;;;;;231.32;218.63;;;11.00;99.90;;;;;;5034910;28;20025;-72
2024/02/04 05:09:43;;;;;;;251.85;237.70;;;11.00;99.90;;;;;;5035596;28;20033;-72
2024/02/04 05:12:09;;;;;;;269.33;254.05;;;11.00;99.90;;;;;;5035053;28;20030;-71
2024/02/04 05:14:35;;;;;;;276.73;260.65;;;10.90;99.90;;;;;;5067209;28;20041;-72
2024/02/04 05:17:02;;;;;;;266.58;251.00;;;10.80;99.90;;;;;;5034860;28;20037;-72
2024/02/04 05:19:28;;;;;;;236.70;223.57;;;10.90;99.90;;;;;;5034450;28;20394;-72
2024/02/04 05:21:54;;;;;;;230.38;217.30;;;10.90;99.90;;;;;;5034491;28;20037;-72
2024/02/04 05:24:20;;;;;;;224.40;211.75;;;10.90;99.90;;;;;;5034922;28;20048;-72
2024/02/04 05:26:46;;;;;;;208.57;195.82;;;11.00;99.90;;;;;;5034730;28;20037;-71
2024/02/04 05:29:12;;;;;;;223.27;210.90;;;11.00;99.90;;;;;;5034836;28;20044;-72
2024/02/04 05:31:44;;;;;;;211.43;199.50;;;11.00;99.90;;;;;;5034493;28;20042;-72
2024/02/04 05:34:11;;;;;;;191.07;180.32;;;10.80;99.90;;;;;;5035199;28;20033;-72
2024/02/04 05:36:37;;;;;;;170.88;161.18;;;10.70;99.90;;;;;;5031020;28;20030;-72
2024/02/04 05:39:12;;;;;;;195.98;185.20;;;10.80;99.90;;;;;;5028380;28;20045;-71
2024/02/04 05:41:39;;;;;;;193.65;182.75;;;10.80;99.90;;;;;;5034488;28;20052;-72
2024/02/04 05:44:05;;;;;;;184.98;174.20;;;10.90;99.90;;;;;;5033855;28;20037;-72
2024/02/04 05:46:32;;;;;;;180.10;170.02;;;10.90;99.90;;;;;;5032293;28;20045;-72
2024/02/04 05:48:58;;;;;;;204.57;192.38;;;10.90;99.90;;;;;;5033661;28;20113;-72
2024/02/04 05:51:24;;;;;;;192.02;181.32;;;10.90;99.90;;;;;;5033880;28;20033;-72
2024/02/04 05:53:50;;;;;;;181.32;171.00;;;11.00;99.90;;;;;;5034591;28;20037;-72
2024/02/04 05:56:17;;;;;;;213.35;201.30;;;11.00;99.90;;;;;;5034377;28;20042;-73
2024/02/04 05:58:43;;;;;;;207.20;195.68;;;11.00;99.90;;;;;;5034682;28;20036;-72
2024/02/04 06:01:09;;;;;;;202.05;190.38;;;10.90;99.90;;;;;;5033532;28;20064;-72
2024/02/04 06:03:35;;;;;;;192.45;181.50;;;11.00;99.90;;;;;;5034740;28;20017;-72
2024/02/04 06:06:01;;;;;;;226.68;213.93;;;10.90;99.90;;;;;;5033922;28;20379;-72
2024/02/04 06:08:27;;;;;;;218.93;202.77;;;10.90;99.90;;;;;;5034142;28;20176;-72
2024/02/04 06:10:53;;;;;;;193.82;182.45;;;10.90;99.90;;;;;;5034177;28;20029;-72
2024/02/04 06:13:19;;;;;;;225.70;212.98;;;11.00;99.90;;;;;;5034401;28;20021;-72
2024/02/04 06:15:45;;;;;;;246.45;232.13;;;11.00;99.90;;;;;;5033961;28;20033;-72
2024/02/04 06:18:11;;;;;;;250.73;236.70;;;11.10;99.90;;;;;;5034287;28;20040;-73
2024/02/04 06:20:37;;;;;;;249.85;235.80;;;11.10;99.90;;;;;;5032029;28;20037;-73
2024/02/04 06:23:04;;;;;;;244.93;231.10;;;11.10;99.90;;;;;;5033836;28;20478;-72
2024/02/04 06:25:30;;;;;;;211.52;199.65;;;11.10;99.90;;;;;;5033667;28;20046;-72
2024/02/04 06:27:56;;;;;;;202.80;191.30;;;11.10;99.90;;;;;;5034185;28;20383;-72
2024/02/04 06:30:22;;;;;;;238.05;224.55;;;11.10;99.90;;;;;;5033125;28;20033;-73
2024/02/04 06:32:51;;;;;;;231.82;218.57;;;11.10;99.90;;;;;;5033003;28;20036;-72
2024/02/04 06:35:18;;;;;;;221.70;209.25;;;11.10;99.90;;;;;;5033391;28;20033;-72
2024/02/04 06:37:44;;;;;;;193.70;182.88;;;11.10;99.90;;;;;;5033854;28;20041;-73
2024/02/04 06:40:11;;;;;;;197.40;186.40;;;11.10;99.90;;;;;;5033326;28;20042;-72
2024/02/04 06:42:37;;;;;;;189.45;179.00;;;11.00;99.90;;;;;;5033957;28;20382;-72
2024/02/04 06:45:03;;;;;;;195.57;184.82;;;11.00;99.90;;;;;;5033477;28;20018;-73
2024/02/04 06:47:29;;;;;;;258.02;243.43;;;11.00;99.90;;;;;;5033370;28;20030;-72
2024/02/04 06:49:55;;;;;;;258.80;244.18;;;11.00;99.90;;;;;;5033418;28;20046;-72
2024/02/04 06:52:21;;;;;;;218.88;206.32;;;11.10;99.90;;;;;;5032307;28;20036;-72
2024/02/04 06:54:47;;;;;;;207.35;195.73;;;11.10;99.90;;;;;;5033725;28;20041;-72
2024/02/04 06:57:13;;;;;;;215.25;203.25;;;11.00;99.90;;;;;;5033276;28;20052;-73
2024/02/04 06:59:40;;;;;;;216.00;204.27;;;11.00;99.90;;;;;;5033582;28;20021;-72
2024/02/04 07:02:06;;;;;;;185.57;175.30;;;11.00;99.90;;;;;;5032254;28;20044;-73
2024/02/04 07:04:32;;;;;;;190.85;180.25;;;11.00;99.90;;;;;;5032316;28;20044;-72
2024/02/04 07:06:58;;;;;;;206.13;194.82;;;11.10;99.90;;;;;;5033281;28;20036;-72
2024/02/04 07:09:24;;;;;;;192.98;182.15;;;11.10;99.90;;;;;;5033356;28;20492;-73
2024/02/04 07:11:50;;;;;;;232.82;219.82;;;11.00;99.90;;;;;;5033150;28;20026;-72
2024/02/04 07:14:16;;;;;;;224.75;212.23;;;11.00;99.90;;;;;;5031486;28;20056;-72
2024/02/04 07:16:42;;;;;;;218.50;206.18;;;11.00;99.90;;;;;;5032579;28;20037;-72
2024/02/04 07:19:08;;;;;;;233.07;220.07;;;11.00;99.90;;;;;;5033340;28;20040;-72
2024/02/04 07:21:35;;;;;;;252.43;237.80;;;11.10;99.90;;;;;;5033021;28;20040;-72
2024/02/04 07:24:01;;;;;;;244.77;230.88;;;11.10;99.90;;;;;;5032514;28;20037;-72
2024/02/04 07:26:27;;;;;;;237.48;224.18;;;11.10;99.90;;;;;;5032989;28;20052;-72
2024/02/04 07:28:53;;;;;;;228.35;215.60;;;11.00;99.90;;;;;;5031324;28;20037;-72
2024/02/04 07:31:19;;;;;;;237.50;224.13;;;10.90;99.90;;;;;;5032139;28;20038;-72
2024/02/04 07:33:45;;;;;;;238.45;225.27;;;11.00;99.90;;;;;;5033057;28;20030;-72
2024/02/04 07:36:11;;;;;;;534.38;207.63;;;10.90;99.90;;;;;;5032750;28;20040;-72
2024/02/04 07:38:37;;;;;;;227.52;215.02;;;11.00;99.90;;;;;;5032794;28;20350;-72
2024/02/04 07:41:04;;;;;;;241.82;228.30;;;10.90;99.90;;;;;;5032698;28;20060;-72
2024/02/04 07:43:30;;;;;;;172.88;162.82;;;11.00;99.90;;;;;;5032747;28;20359;-72
2024/02/04 07:45:56;;;;;;;223.70;211.00;;;11.00;99.90;;;;;;5032033;28;20048;-72
2024/02/04 07:48:22;;;;;;;266.58;251.25;;;11.00;99.90;;;;;;5032573;28;20037;-72
2024/02/04 07:50:48;;;;;;;269.90;254.40;;;11.00;99.90;;;;;;5032614;28;20478;-72
2024/02/04 07:53:14;;;;;;;227.48;214.77;;;11.00;99.90;;;;;;5033515;28;20040;-73
2024/02/04 07:55:40;;;;;;;241.23;228.25;;;11.00;99.90;;;;;;5028200;28;20304;-72
2024/02/04 07:58:06;;;;;;;270.75;255.45;;;11.00;99.90;;;;;;5018671;28;20355;-72
2024/02/04 08:00:32;;;;;;;215.55;203.52;;;11.00;99.90;;;;;;5031340;28;20029;-73
2024/02/04 08:02:59;;;;;;;207.95;196.77;;;11.00;99.90;;;;;;5032341;28;20025;-72
2024/02/04 08:05:25;;;;;;;218.35;206.52;;;11.00;99.90;;;;;;5019827;28;20033;-72
2024/02/04 08:07:51;;;;;;;288.48;272.40;;;11.10;99.90;;;;;;5012699;28;20498;-73
2024/02/04 08:10:17;;;;;;;173.35;163.85;;;11.10;99.90;;;;;;5012593;28;20026;-72
2024/02/04 08:12:43;;;;;;;140.32;132.43;;;11.10;99.90;;;;;;5027141;28;20048;-72
2024/02/04 08:15:09;;;;;;;138.25;130.55;;;11.10;99.90;;;;;;5011612;28;20026;-72
2024/02/04 08:17:35;;;;;;;175.52;165.93;;;11.10;99.90;;;;;;5031607;28;20037;-72
2024/02/04 08:20:03;;;;;;;193.10;182.38;;;11.10;99.90;;;;;;5031959;28;20029;-72
2024/02/04 08:22:29;;;;;;;201.07;190.02;;;11.10;99.90;;;;;;5031081;28;20086;-72
2024/02/04 08:24:56;;;;;;;161.60;153.07;;;11.10;99.90;;;;;;5030173;28;20033;-73
2024/02/04 08:27:22;;;;;;;198.88;187.82;;;11.00;99.90;;;;;;5031545;28;20037;-72
2024/02/04 08:29:48;;;;;;;132.82;124.78;;;11.00;99.90;;;;;;5031496;28;20029;-72
2024/02/04 08:32:14;;;;;;;149.88;141.55;;;11.10;99.90;;;;;;5031270;28;20045;-72
2024/02/04 08:34:40;;;;;;;145.68;137.82;;;11.10;99.90;;;;;;5032156;28;20378;-72
2024/02/04 08:37:06;;;;;;;135.00;127.47;;;11.10;99.90;;;;;;5034623;28;20101;-72
2024/02/04 08:39:32;;;;;;;131.68;124.53;;;11.10;99.90;;;;;;5035950;28;20060;-72
2024/02/04 08:41:58;;;;;;;146.60;138.90;;;11.10;99.90;;;;;;5034035;28;20053;-72
2024/02/04 08:44:24;;;;;;;186.45;176.30;;;11.10;99.90;;;;;;5035771;28;20022;-72
2024/02/04 08:46:50;;;;;;;187.48;177.60;;;11.10;99.90;;;;;;5035059;28;20053;-72
2024/02/04 08:49:16;;;;;;;169.93;160.57;;;11.20;99.90;;;;;;5036104;28;20022;-72
2024/02/04 08:51:43;;;;;;;184.73;174.52;;;11.10;99.90;;;;;;5035828;28;20037;-72
2024/02/04 08:54:09;;;;;;;208.93;197.80;;;11.10;99.90;;;;;;5035582;28;20049;-72
2024/02/04 08:56:35;;;;;;;215.38;204.18;;;11.10;99.90;;;;;;5035167;28;20596;-72
2024/02/04 08:59:02;;;;;;;162.23;153.80;;;11.10;99.90;;;;;;5035490;28;20033;-72
2024/02/04 09:01:28;;;;;;;150.23;142.05;;;11.10;99.90;;;;;;5034221;28;20042;-72
2024/02/04 09:03:54;;;;;;;149.98;141.93;;;11.20;99.90;;;;;;5033801;28;20041;-72
2024/02/04 09:06:20;;;;;;;167.57;157.82;;;11.20;99.90;;;;;;5025123;28;20044;-72
2024/02/04 09:08:46;;;;;;;189.18;178.60;;;11.20;99.90;;;;;;5035177;28;20042;-72
2024/02/04 09:11:18;;;;;;;179.07;169.05;;;11.10;99.90;;;;;;5035347;28;20030;-72
2024/02/04 09:13:45;;;;;;;163.18;154.30;;;11.20;99.90;;;;;;5035305;28;20065;-72
2024/02/04 09:16:11;;;;;;;191.23;180.13;;;11.20;99.90;;;;;;5034584;28;20060;-72
2024/02/04 09:18:37;;;;;;;246.93;232.43;;;11.30;99.90;;;;;;5035042;28;20029;-72
2024/02/04 09:21:03;;;;;;;198.52;186.80;;;11.30;99.90;;;;;;5033003;28;20056;-72
2024/02/04 09:23:29;;;;;;;234.77;221.43;;;11.30;99.90;;;;;;5034460;28;20081;-72
2024/02/04 09:25:55;;;;;;;234.82;221.27;;;11.20;99.90;;;;;;5033660;28;20026;-72
2024/02/04 09:28:22;;;;;;;191.02;179.70;;;11.10;99.90;;;;;;5034276;28;20045;-72
2024/02/04 09:30:48;;;;;;;228.02;214.98;;;11.10;99.90;;;;;;5032311;28;20049;-72
2024/02/04 09:33:14;;;;;;;260.85;245.82;;;11.10;99.90;;;;;;5035221;28;20030;-72
2024/02/04 09:35:40;;;;;;;314.67;296.33;;;11.20;99.90;;;;;;5034041;28;20525;-72
2024/02/04 09:38:06;;;;;;;307.67;290.38;;;11.20;99.90;;;;;;5034616;28;20524;-72
2024/02/04 09:40:33;;;;;;;282.20;266.27;;;11.20;99.90;;;;;;5034516;28;20049;-72
2024/02/04 09:42:59;;;;;;;256.88;241.90;;;11.20;99.90;;;;;;5032624;28;20049;-72
2024/02/04 09:45:25;;;;;;;241.32;227.70;;;11.20;99.90;;;;;;5016005;28;20502;-72
2024/02/04 09:47:52;;;;;;;273.02;258.00;;;11.30;99.90;;;;;;5034286;28;20044;-72
2024/02/04 09:50:20;;;;;;;231.48;218.32;;;11.20;99.90;;;;;;5016463;28;20036;-72
2024/02/04 09:52:49;;;;;;;219.85;207.18;;;11.20;99.90;;;;;;5034662;28;20025;-72
2024/02/04 09:55:16;;;;;;;236.63;223.00;;;11.30;99.90;;;;;;5032548;28;20017;-72
2024/02/04 09:57:42;;;;;;;203.90;192.75;;;11.20;99.90;;;;;;5032398;28;20049;-72
2024/02/04 10:00:10;;;;;;;310.95;293.17;;;11.20;99.90;;;;;;5015833;28;20053;-72
2024/02/04 10:02:36;;;;;;;174.68;164.65;;;11.20;99.90;;;;;;5028868;28;20426;-72
2024/02/04 10:05:03;;;;;;;198.43;187.57;;;11.30;99.90;;;;;;5029609;28;20030;-72
2024/02/04 10:07:29;;;;;;;136.18;128.80;;;11.30;99.90;;;;;;5031915;28;20050;-72
2024/02/04 10:09:56;;;;;;;141.80;133.50;;;11.30;99.90;;;;;;5032788;28;20030;-72
2024/02/04 10:12:22;;;;;;;152.60;143.48;;;11.20;99.90;;;;;;5033325;28;20398;-72
2024/02/04 10:14:49;;;;;;;125.07;117.80;;;11.30;99.90;;;;;;5034078;28;20386;-72
2024/02/04 10:17:15;;;;;;;120.53;113.85;;;11.30;99.90;;;;;;5031258;28;20041;-72
2024/02/04 10:19:41;;;;;;;112.38;105.93;;;11.30;99.90;;;;;;5034062;28;20034;-72
2024/02/04 10:22:07;;;;;;;111.68;105.22;;;11.20;99.90;;;;;;5032617;28;20434;-72
2024/02/04 10:24:34;;;;;;;113.15;106.20;;;11.30;99.90;;;;;;5032629;28;20026;-72
2024/02/04 10:27:00;;;;;;;122.20;115.13;;;11.30;99.90;;;;;;5032901;28;20391;-72
2024/02/04 10:29:26;;;;;;;142.30;133.73;;;11.30;99.90;;;;;;5032009;28;20041;-72
2024/02/04 10:31:56;;;;;;;122.32;115.30;;;11.20;99.90;;;;;;5032089;28;20382;-72
2024/02/04 10:34:23;;;;;;;167.20;157.90;;;11.30;99.90;;;;;;5033738;28;20029;-72
2024/02/04 10:36:49;;;;;;;157.63;148.82;;;11.30;99.90;;;;;;5033279;28;20030;-72
2024/02/04 10:39:15;;;;;;;151.05;142.32;;;11.20;99.90;;;;;;5033735;28;20064;-72
2024/02/04 10:41:48;;;;;;;164.45;155.23;;;11.20;99.90;;;;;;5032629;28;20434;-72
2024/02/04 10:44:16;;;;;;;151.57;142.88;;;11.30;99.90;;;;;;5015601;28;20044;-72
2024/02/04 10:46:42;;;;;;;145.80;137.50;;;11.30;99.90;;;;;;5015024;28;20414;-72
2024/02/04 10:49:09;;;;;;;125.72;118.07;;;11.30;99.90;;;;;;5036165;28;20044;-73
2024/02/04 10:51:35;;;;;;;127.97;120.78;;;11.30;99.90;;;;;;5039213;28;20028;-72
2024/02/04 10:54:01;;;;;;;141.52;133.00;;;11.30;99.90;;;;;;5032138;28;20052;-72
2024/02/04 10:56:34;;;;;;;137.02;129.23;;;11.20;99.90;;;;;;5031352;28;20029;-72
2024/02/04 10:59:02;;;;;;;127.18;119.38;;;11.20;99.90;;;;;;5015379;28;20040;-72
2024/02/04 11:01:28;;;;;;;142.93;134.63;;;11.20;99.90;;;;;;5030476;28;20505;-73
2024/02/04 11:03:55;;;;;;;1999.90;999.90;;;11.20;99.90;;;;;;5033544;28;20032;-71
2024/02/04 11:06:21;;;;;;;144.02;135.18;;;11.30;99.90;;;;;;5031187;28;20545;-74
2024/02/04 11:08:47;;;;;;;601.22;345.13;;;11.40;99.90;;;;;;5032199;28;20045;-73
2024/02/04 11:11:13;;;;;;;598.53;342.35;;;11.30;99.90;;;;;;5031502;28;20041;-74
2024/02/04 11:13:41;;;;;;;596.60;340.90;;;11.30;99.90;;;;;;5032096;28;20033;-74
2024/02/04 11:16:09;;;;;;;605.08;348.52;;;11.40;99.90;;;;;;5013980;28;20045;-73
2024/02/04 11:18:58;;;;;;;148.95;140.18;;;11.40;99.90;;;;;;5014626;28;20041;-73
2024/02/04 11:21:55;;;;;;;1999.90;999.90;;;11.50;99.90;;;;;;5016322;28;20490;-73
2024/02/04 11:24:55;;;;;;;143.90;135.25;;;11.50;99.90;;;;;;5032717;28;20065;-73
2024/02/04 11:27:21;;;;;;;142.38;133.73;;;11.50;99.90;;;;;;4973846;28;20503;-73
2024/02/04 11:29:48;;;;;;;1999.90;999.90;;;11.50;99.90;;;;;;4942747;28;20034;-73
2024/02/04 11:32:14;;;;;;;1999.90;999.90;;;11.40;99.90;;;;;;4973942;28;20419;-74
2024/02/04 11:34:41;;;;;;;1999.90;999.90;;;11.30;99.90;;;;;;4990645;28;20464;-74
2024/02/04 11:37:18;;;;;;;1999.90;999.90;;;11.40;99.90;;;;;;4990124;28;20122;-74
2024/02/04 11:39:53;;;;;;;1999.90;999.90;;;11.30;99.90;;;;;;4990257;28;20431;-74
2024/02/04 11:42:20;;;;;;;1999.90;999.90;;;11.30;99.90;;;;;;4989597;28;20054;-71
2024/02/04 11:44:46;;;;;;;1999.90;999.90;;;11.40;99.90;;;;;;4990405;28;20527;-71
2024/02/04 11:47:24;;;;;;;1999.90;999.90;;;11.50;99.90;;;;;;4989671;28;20156;-71
2024/02/04 11:49:57;;;;;;;1999.90;999.90;;;11.50;99.90;;;;;;4991114;28;20050;-73
2024/02/04 11:52:23;;;;;;;1999.90;999.90;;;11.50;99.90;;;;;;4989622;28;20049;-74
2024/02/04 11:54:50;;;;;;;1999.90;999.90;;;11.40;99.90;;;;;;4974904;28;20042;-74
2024/02/04 11:57:17;;;;;;;1999.90;999.90;;;11.40;99.90;;;;;;4989000;28;20504;-73
2024/02/04 11:59:44;;;;;;;1999.90;999.90;;;11.40;99.90;;;;;;4990329;28;20060;-73
2024/02/04 12:02:11;;;;;;;1999.90;999.90;;;11.50;99.90;;;;;;4979018;28;20039;-74
2024/02/04 12:04:41;;;;;;;1999.90;999.90;;;11.50;99.90;;;;;;5032192;28;20037;-73
2024/02/04 12:07:08;;;;;;;1999.90;999.90;;;11.50;99.90;;;;;;5030738;28;20041;-74